Monday, July 23, 2018, 7:39 AM EDT
Back to Local

KESN, Easton / Newman Field

Location: Easton, MD, United States Lat: 38.8
Local Time: 7:39 AM EDT (11:39 GMT) Lon: -76.067
Time Zone: US/Eastern Elev: 72 ft

Show me the last for .
Show Decoded

2018-07-23 06:45 METAR KESN 231045Z 16007KT 10SM BKN120 25/23 A2998 =
2018-07-23 05:45 METAR KESN 230945Z 14005KT 10SM FEW005 BKN120 26/24 A2995 =
2018-07-23 05:36 METAR KESN 230936Z AUTO 17007G14KT 10SM CLR 26/24 A2995 RMK AO2 T02610240 =
2018-07-23 05:27 METAR KESN 230929Z AUTO 17010G14KT 10SM SCT013 26/24 A2995 RMK AO2 T02610241 =
2018-07-23 05:07 METAR KESN 230909Z AUTO 16008KT 10SM SCT013 SCT025 SCT030 26/25 A2995 RMK AO2
                 T02610245 =
2018-07-23 04:49 METAR KESN 230849Z AUTO 15007KT 10SM SCT011 SCT025 SCT070 26/25 A2994 RMK AO2
                 T02600245 =
2018-07-23 04:27 METAR KESN 230829Z AUTO 16007KT 10SM SCT011 SCT026 SCT060 26/25 A2994 RMK AO2
                 T02600245 =
2018-07-23 04:07 METAR KESN 230809Z AUTO 16006KT 10SM CLR 26/25 A2994 RMK AO2 T02590245 =
2018-07-23 03:49 METAR KESN 230749Z AUTO 15007KT 7SM CLR 26/24 A2992 RMK AO2 T02560243 =
2018-07-23 03:26 METAR KESN 230729Z AUTO 16007KT 7SM SCT013 26/24 A2993 RMK AO2 T02560242 =
2018-07-23 03:06 METAR KESN 230709Z AUTO 15005KT 7SM SCT013 26/24 A2993 RMK AO2 T02570243 =
2018-07-23 02:49 METAR KESN 230649Z AUTO 15007KT 10SM CLR 26/24 A2993 RMK AO2 T02590242 =
2018-07-23 02:27 METAR KESN 230629Z AUTO 15007KT 7SM SCT046 26/24 A2993 RMK AO2 T02600243 =
2018-07-23 02:07 METAR KESN 230609Z AUTO 15006KT 7SM SCT013 SCT046 BKN050 26/24 A2994 RMK AO2
                 T02600244 =
2018-07-23 01:49 METAR KESN 230549Z AUTO 15007KT 10SM SCT013 SCT044 SCT050 26/24 A2993 RMK AO2
                 T02610243 =
2018-07-23 01:27 METAR KESN 230529Z AUTO 16008KT 10SM SCT013 SCT023 SCT043 26/24 A2993 RMK AO2
                 T02600243 =
2018-07-23 01:07 METAR KESN 230509Z AUTO 15007KT 10SM SCT013 SCT023 SCT035 26/24 A2994 RMK AO2
                 T02600243 =
2018-07-23 00:49 METAR KESN 230449Z AUTO 15008KT 10SM SCT043 26/24 A2994 RMK AO2 T02600243 =
2018-07-23 00:26 METAR KESN 230429Z AUTO 16008KT 10SM SCT041 26/24 A2994 RMK AO2 T02600243 =
2018-07-23 00:08 METAR KESN 230409Z AUTO 16008KT 10SM SCT041 26/25 A2995 RMK AO2 T02600245 =
2018-07-22 23:49 METAR KESN 230349Z AUTO 16007KT 10SM CLR 26/24 A2995 RMK AO2 T02580243 =
2018-07-22 23:26 METAR KESN 230329Z AUTO 15006KT 10SM SCT024 SCT044 SCT065 26/24 A2994 RMK AO2
                 T02550242 =
2018-07-22 23:07 METAR KESN 230309Z AUTO 14003KT 10SM SCT024 SCT044 SCT065 25/24 A2994 RMK AO2
                 T02490237 =
2018-07-22 22:49 METAR KESN 230249Z AUTO 09003KT 10SM SCT026 25/24 A2994 RMK AO2 T02460235 =
2018-07-22 22:27 METAR KESN 230229Z AUTO 00000KT 10SM SCT022 SCT028 24/23 A2993 RMK AO2 T02410230
                 =
2018-07-22 21:50 METAR KESN 230150Z 00000KT 10SM SKC 23/22 A2993 =
2018-07-22 20:50 METAR KESN 230050Z 00000KT 10SM BKN025 24/22 A2992 =
2018-07-22 19:53 METAR KESN 222353Z 15003KT 10SM SCT070 BKN200 23/22 A2990 =
2018-07-22 19:10 METAR KESN 222310Z 19006G15KT 10SM SCT014 BKN060 24/21 A2990 RMK TSE12 =
2018-07-22 18:45 METAR KESN 222245Z 16020G30KT 2SM +TSRA BKN006 BKN015 BKN027 25/23 A2988 RMK TS
                 OVHD MOV N OCNL LTGCG E =
2018-07-22 18:12 METAR KESN 222212Z 12007G16KT 7SM -TSRA SCT006 BKN025 BKN035 25/23 A2987 RMK
                 TSB12 TS NE MOV N OCNL LTGCG NE =
2018-07-22 17:50 METAR KESN 222150Z 16008KT 7SM -RA BKN031 BKN041 OVC060 27/23 A2987 =
2018-07-22 16:50 METAR KESN 222050Z 17010KT 10SM BKN035 30/22 A2985 =
2018-07-22 15:50 METAR KESN 221950Z 18012KT 10SM SCT042 BKN050 31/21 A2986 =
2018-07-22 14:50 METAR KESN 221850Z 15010G16KT 10SM BKN030 BKN200 31/23 A2985 =
2018-07-22 13:45 METAR KESN 221745Z 05005KT 10SM BKN031 27/24 A2985 =
2018-07-22 12:50 METAR KESN 221650Z 02004KT 10SM SCT010 BKN031 25/23 A2988 =
2018-07-22 11:50 METAR KESN 221550Z 00000KT 4SM -RA BKN012 OVC019 24/22 A2990 =
2018-07-22 10:50 METAR KESN 221450Z 00000KT 2SM RA BKN006 OVC011 22/21 A2990 =
2018-07-22 09:50 METAR KESN 221350Z 17003KT 10SM BKN012 OVC027 24/20 A2989 =
2018-07-22 08:50 METAR KESN 221250Z 13006KT 10SM SCT030 23/20 A2988 =
2018-07-22 07:50 METAR KESN 221150Z 16006KT 10SM OVC013 20/19 A2986 =

Support USWX by starting your Amazon purchase here.